createdAt,value
2018-09-25T00:00:00.583Z,63.44
2018-09-25T00:00:31.709Z,62.79
2018-09-25T00:01:02.821Z,61.96
2018-09-25T00:01:33.938Z,61.36
2018-09-25T00:02:05.057Z,60.88
2018-09-25T00:02:36.197Z,60.51
2018-09-25T00:03:07.303Z,61.00
2018-09-25T00:03:38.465Z,62.11
2018-09-25T00:04:09.577Z,61.16
2018-09-25T00:04:40.682Z,60.22
2018-09-25T00:06:13.403Z,59.57
2018-09-25T00:06:44.503Z,59.17
2018-09-25T00:07:15.607Z,59.40
2018-09-25T00:07:46.706Z,60.75
2018-09-25T00:08:17.811Z,59.03
2018-09-25T00:08:48.941Z,58.86
2018-09-25T00:09:20.074Z,57.54
2018-09-25T00:09:51.225Z,57.98
2018-09-25T00:10:22.353Z,56.35
2018-09-25T00:10:53.463Z,56.09
2018-09-25T00:11:24.575Z,56.18
2018-09-25T00:11:55.690Z,56.16
2018-09-25T00:12:26.800Z,55.81
2018-09-25T00:12:57.925Z,54.61
2018-09-25T00:13:29.017Z,54.85
2018-09-25T00:14:00.152Z,55.72
2018-09-25T00:14:31.288Z,54.78
2018-09-25T00:15:02.390Z,54.29
2018-09-25T00:15:33.489Z,53.98
2018-09-25T00:16:04.628Z,55.25
2018-09-25T00:16:35.738Z,54.05
2018-09-25T00:17:06.893Z,53.55
2018-09-25T00:17:38.002Z,53.99
2018-09-25T00:18:09.107Z,54.07
2018-09-25T00:18:40.234Z,53.68
2018-09-25T00:19:11.369Z,53.50
2018-09-25T00:19:42.495Z,52.71
2018-09-25T00:20:13.689Z,52.81
2018-09-25T00:20:44.790Z,52.27
2018-09-25T00:21:15.903Z,52.66
2018-09-25T00:21:47.015Z,54.63
2018-09-25T00:22:18.118Z,52.37
2018-09-25T00:22:49.676Z,51.71
2018-09-25T00:23:20.778Z,53.95
2018-09-25T00:23:51.884Z,51.94
2018-09-25T00:24:22.983Z,51.90
2018-09-25T00:24:54.093Z,52.99
2018-09-25T00:25:25.232Z,52.59
2018-09-25T00:25:56.334Z,50.96
2018-09-25T00:26:27.430Z,51.41
2018-09-25T00:26:58.557Z,51.05
2018-09-25T00:27:29.692Z,50.84
2018-09-25T00:28:00.800Z,50.84
2018-09-25T00:28:31.904Z,50.82
2018-09-25T00:29:03.003Z,50.66
2018-09-25T00:29:34.097Z,50.89
2018-09-25T00:30:05.201Z,50.24
2018-09-25T00:30:36.346Z,51.13
2018-09-25T00:31:07.455Z,50.65
2018-09-25T00:31:38.555Z,51.85
2018-09-25T00:32:09.673Z,51.19
2018-09-25T00:32:40.781Z,51.06
2018-09-25T00:33:11.947Z,51.02
2018-09-25T00:33:43.067Z,51.20
2018-09-25T00:34:14.209Z,51.10
2018-09-25T00:34:45.321Z,52.71
2018-09-25T00:35:16.423Z,51.39
2018-09-25T00:35:47.521Z,50.53
2018-09-25T00:36:18.652Z,50.70
2018-09-25T00:36:49.830Z,50.89
2018-09-25T00:37:20.952Z,49.95
2018-09-25T00:37:52.049Z,49.86
2018-09-25T00:38:23.182Z,50.36
2018-09-25T00:38:54.310Z,49.91
2018-09-25T00:39:25.440Z,50.17
2018-09-25T00:39:56.531Z,49.92
2018-09-25T00:40:27.619Z,50.18
2018-09-25T00:40:58.734Z,50.51
2018-09-25T00:41:29.834Z,50.90
2018-09-25T00:42:00.937Z,49.84
2018-09-25T00:42:32.083Z,49.67
2018-09-25T00:43:03.223Z,49.78
2018-09-25T00:43:34.362Z,49.81
2018-09-25T00:44:05.453Z,49.84
2018-09-25T00:44:36.558Z,49.46
2018-09-25T00:45:07.656Z,49.54
2018-09-25T00:45:38.768Z,49.75
2018-09-25T00:46:09.869Z,49.70
2018-09-25T00:46:40.975Z,49.52
2018-09-25T00:47:12.149Z,51.42
2018-09-25T00:47:43.271Z,50.15
2018-09-25T00:48:14.386Z,50.00
2018-09-25T00:48:45.506Z,50.23
2018-09-25T00:49:16.609Z,49.26
2018-09-25T00:49:47.804Z,49.18
2018-09-25T00:50:18.904Z,49.06
2018-09-25T00:50:50.020Z,49.97
2018-09-25T00:51:21.142Z,50.03
2018-09-25T00:51:52.255Z,49.79
2018-09-25T00:52:23.359Z,49.74
2018-09-25T00:52:54.466Z,49.96
2018-09-25T00:53:25.576Z,49.53
2018-09-25T00:53:56.705Z,50.53
2018-09-25T00:54:27.866Z,49.75
2018-09-25T00:54:59.009Z,49.72
2018-09-25T00:55:30.137Z,50.26
2018-09-25T00:56:01.266Z,48.77
2018-09-25T00:56:32.402Z,49.08
2018-09-25T00:57:03.501Z,48.84
2018-09-25T00:57:34.594Z,49.17
2018-09-25T00:58:05.713Z,49.26
2018-09-25T00:58:36.867Z,49.95
2018-09-25T00:59:07.986Z,48.76
2018-09-25T00:59:39.113Z,50.69
2018-09-25T01:00:10.260Z,50.27
2018-09-25T01:00:41.386Z,49.98
2018-09-25T01:01:12.508Z,48.86
2018-09-25T01:01:43.609Z,49.19
2018-09-25T01:02:14.715Z,49.65
2018-09-25T01:02:45.880Z,50.24
2018-09-25T01:03:16.976Z,49.21
2018-09-25T01:03:48.078Z,48.70
2018-09-25T01:04:19.179Z,48.42
2018-09-25T01:04:50.279Z,49.01
2018-09-25T01:05:21.387Z,48.67
2018-09-25T01:05:52.497Z,49.26
2018-09-25T01:06:23.595Z,49.39
2018-09-25T01:06:54.709Z,48.81
2018-09-25T01:07:25.808Z,49.46
2018-09-25T01:07:56.945Z,48.86
2018-09-25T01:08:28.056Z,49.42
2018-09-25T01:08:59.179Z,49.83
2018-09-25T01:09:30.282Z,48.93
2018-09-25T01:10:01.387Z,49.47
2018-09-25T01:10:32.541Z,50.12
2018-09-25T01:11:03.693Z,49.24
2018-09-25T01:11:34.795Z,49.23
2018-09-25T01:12:05.903Z,49.96
2018-09-25T01:12:37.006Z,48.80
2018-09-25T01:13:08.136Z,49.01
2018-09-25T01:13:39.236Z,50.03
2018-09-25T01:14:10.333Z,50.35
2018-09-25T01:14:41.478Z,49.07
2018-09-25T01:15:12.622Z,48.48
2018-09-25T01:15:43.730Z,48.90
2018-09-25T01:16:14.830Z,48.48
2018-09-25T01:16:45.944Z,48.72
2018-09-25T01:17:17.051Z,49.10
2018-09-25T01:17:48.203Z,48.64
2018-09-25T01:18:19.309Z,49.06
2018-09-25T01:18:50.424Z,49.76
2018-09-25T01:19:21.594Z,49.35
2018-09-25T01:19:52.723Z,49.00
2018-09-25T01:20:23.828Z,51.28
2018-09-25T01:20:54.932Z,49.12
2018-09-25T01:21:26.039Z,49.45
2018-09-25T01:21:57.194Z,49.92
2018-09-25T01:22:28.315Z,49.85
2018-09-25T01:22:59.451Z,49.16
2018-09-25T01:23:30.549Z,49.71
2018-09-25T01:24:01.679Z,50.24
2018-09-25T01:24:32.817Z,49.11
2018-09-25T01:25:03.913Z,48.63
2018-09-25T01:25:35.006Z,49.40
2018-09-25T01:26:06.117Z,50.28
2018-09-25T01:26:37.215Z,48.86
2018-09-25T01:27:08.315Z,49.99
2018-09-25T01:27:39.463Z,49.45
2018-09-25T01:28:10.592Z,50.04
2018-09-25T01:28:41.715Z,48.61
2018-09-25T01:29:12.824Z,48.47
2018-09-25T01:29:43.983Z,48.22
2018-09-25T01:30:15.098Z,48.33
2018-09-25T01:30:46.232Z,49.69
2018-09-25T01:31:17.343Z,48.70
2018-09-25T01:31:48.437Z,49.04
2018-09-25T01:32:19.548Z,49.02
2018-09-25T01:32:50.666Z,48.80
2018-09-25T01:33:21.852Z,50.61
2018-09-25T01:33:52.959Z,49.20
2018-09-25T01:34:24.072Z,48.63
2018-09-25T01:34:55.201Z,48.67
2018-09-25T01:35:26.307Z,49.13
2018-09-25T01:35:57.421Z,48.56
2018-09-25T01:36:28.539Z,48.62
2018-09-25T01:36:59.671Z,49.09
2018-09-25T01:37:30.786Z,49.53
2018-09-25T01:38:01.923Z,48.56
2018-09-25T01:38:33.039Z,49.40
2018-09-25T01:39:04.163Z,48.61
2018-09-25T01:39:35.258Z,50.68
2018-09-25T01:40:06.350Z,48.80
2018-09-25T01:40:37.445Z,48.75
2018-09-25T01:41:08.534Z,48.27
2018-09-25T01:41:39.629Z,48.50
2018-09-25T01:42:10.733Z,48.67
2018-09-25T01:42:41.867Z,49.97
2018-09-25T01:43:12.962Z,51.23
2018-09-25T01:43:44.079Z,48.52
2018-09-25T01:44:15.200Z,48.28
2018-09-25T01:44:46.302Z,49.14
2018-09-25T01:45:17.422Z,48.44
2018-09-25T01:45:48.539Z,48.95
2018-09-25T01:46:19.650Z,49.75
2018-09-25T01:46:50.795Z,49.70
2018-09-25T01:47:21.960Z,48.24
2018-09-25T01:47:53.057Z,47.88
2018-09-25T01:48:24.194Z,48.58
2018-09-25T01:48:55.297Z,48.56
2018-09-25T01:49:26.395Z,48.54
2018-09-25T01:49:57.505Z,48.99
2018-09-25T01:50:28.630Z,48.21
2018-09-25T01:50:59.735Z,48.37
2018-09-25T01:51:30.831Z,48.50
2018-09-25T01:52:01.942Z,50.91
2018-09-25T01:52:33.042Z,48.43
2018-09-25T01:53:04.210Z,47.51
2018-09-25T01:53:35.315Z,47.49
2018-09-25T01:54:06.414Z,47.73
2018-09-25T01:54:37.541Z,47.80
2018-09-25T01:55:08.689Z,49.58
2018-09-25T01:55:39.796Z,48.35
2018-09-25T01:56:10.926Z,48.68
2018-09-25T01:56:42.033Z,47.39
2018-09-25T01:57:13.153Z,47.52
2018-09-25T01:57:44.265Z,47.72
2018-09-25T01:58:15.403Z,47.90
2018-09-25T01:58:46.521Z,48.04
2018-09-25T01:59:17.655Z,48.02
2018-09-25T01:59:48.789Z,49.32
2018-09-25T02:00:19.892Z,47.63
2018-09-25T02:00:50.993Z,48.17
2018-09-25T02:01:22.114Z,48.68
2018-09-25T02:01:53.206Z,49.94
2018-09-25T02:02:24.374Z,49.24
2018-09-25T02:02:55.479Z,47.78
2018-09-25T02:03:26.628Z,47.54
2018-09-25T02:03:57.748Z,47.56
2018-09-25T02:04:28.849Z,47.72
2018-09-25T02:04:59.958Z,50.01
2018-09-25T02:05:31.069Z,47.60
2018-09-25T02:06:02.167Z,47.78
2018-09-25T02:06:33.270Z,47.51
2018-09-25T02:07:04.406Z,47.25
2018-09-25T02:07:35.519Z,47.78
2018-09-25T02:08:06.630Z,48.38
2018-09-25T02:08:37.795Z,47.83
2018-09-25T02:09:08.897Z,47.62
2018-09-25T02:09:40.000Z,48.61
2018-09-25T02:10:11.148Z,47.04
2018-09-25T02:10:42.280Z,46.63
2018-09-25T02:11:13.389Z,47.57
2018-09-25T02:11:44.503Z,49.59
2018-09-25T02:12:15.616Z,48.96
2018-09-25T02:12:46.744Z,46.83
2018-09-25T02:13:17.881Z,47.88
2018-09-25T02:13:49.031Z,46.68
2018-09-25T02:14:20.178Z,47.38
2018-09-25T02:14:51.283Z,47.62
2018-09-25T02:15:22.388Z,47.17
2018-09-25T02:15:53.517Z,47.39
2018-09-25T02:16:24.630Z,47.74
2018-09-25T02:16:55.766Z,47.95
2018-09-25T02:17:26.886Z,48.12
2018-09-25T02:17:58.019Z,46.71
2018-09-25T02:18:29.150Z,46.93
2018-09-25T02:19:00.276Z,47.01
2018-09-25T02:19:31.383Z,47.00
2018-09-25T02:20:02.524Z,47.90
2018-09-25T02:20:33.644Z,48.85
2018-09-25T02:21:04.758Z,47.36
2018-09-25T02:21:35.893Z,48.70
2018-09-25T02:22:07.008Z,47.83
2018-09-25T02:22:38.118Z,46.41
2018-09-25T02:23:09.223Z,47.07
2018-09-25T02:23:40.340Z,47.08
2018-09-25T02:24:11.450Z,46.92
2018-09-25T02:24:42.568Z,47.03
2018-09-25T02:25:13.724Z,46.51
2018-09-25T02:25:44.832Z,46.70
2018-09-25T02:26:16.010Z,46.94
2018-09-25T02:26:47.136Z,48.04
2018-09-25T02:27:18.252Z,47.46
2018-09-25T02:27:49.393Z,46.98
2018-09-25T02:28:20.550Z,47.10
2018-09-25T02:28:51.677Z,47.62
2018-09-25T02:29:22.791Z,47.80
2018-09-25T02:29:53.905Z,48.01
2018-09-25T02:30:25.011Z,47.62
2018-09-25T02:30:56.135Z,47.23
2018-09-25T02:31:27.291Z,47.24
2018-09-25T02:31:58.402Z,47.24
2018-09-25T02:32:29.510Z,46.34
2018-09-25T02:33:00.629Z,47.13
2018-09-25T02:33:31.743Z,47.21
2018-09-25T02:34:02.850Z,46.29
2018-09-25T02:34:33.959Z,47.42
2018-09-25T02:35:05.087Z,46.68
2018-09-25T02:35:36.213Z,46.77
2018-09-25T02:36:07.322Z,48.60
2018-09-25T02:36:38.486Z,47.25
2018-09-25T02:37:09.588Z,46.96
2018-09-25T02:37:40.691Z,46.68
2018-09-25T02:38:11.796Z,46.37
2018-09-25T02:38:42.894Z,48.76
2018-09-25T02:39:14.004Z,47.66
2018-09-25T02:39:45.111Z,46.72
2018-09-25T02:40:16.246Z,47.25
2018-09-25T02:40:47.359Z,47.04
2018-09-25T02:41:18.482Z,47.70
2018-09-25T02:41:49.621Z,46.56
2018-09-25T02:42:20.767Z,46.38
2018-09-25T02:42:51.908Z,46.29
2018-09-25T02:43:23.026Z,47.47
2018-09-25T02:43:54.157Z,48.55
2018-09-25T02:44:25.273Z,46.19
2018-09-25T02:44:56.449Z,46.73
2018-09-25T02:45:27.597Z,48.02
2018-09-25T02:45:58.757Z,48.72
2018-09-25T02:46:29.854Z,46.24
2018-09-25T02:47:00.969Z,47.92
2018-09-25T02:47:32.067Z,46.00
2018-09-25T02:48:03.169Z,46.19
2018-09-25T02:48:34.293Z,45.73
2018-09-25T02:49:05.413Z,46.20
2018-09-25T02:49:36.525Z,46.44
2018-09-25T02:50:07.684Z,47.11
2018-09-25T02:50:38.813Z,46.03
2018-09-25T02:51:09.930Z,46.44
2018-09-25T02:51:41.043Z,46.15
2018-09-25T02:52:12.166Z,48.08
2018-09-25T02:52:43.333Z,47.35
2018-09-25T02:53:14.444Z,46.26
2018-09-25T02:53:45.571Z,46.51
2018-09-25T02:54:16.682Z,46.55
2018-09-25T02:54:47.782Z,46.01
2018-09-25T02:55:18.889Z,46.32
2018-09-25T02:55:50.009Z,46.61
2018-09-25T02:56:21.122Z,47.19
2018-09-25T02:56:52.231Z,45.80
2018-09-25T02:57:23.376Z,46.04
2018-09-25T02:57:54.530Z,47.53
2018-09-25T02:58:25.640Z,46.15
2018-09-25T02:58:56.793Z,46.18
2018-09-25T02:59:27.898Z,46.24
2018-09-25T02:59:59.002Z,47.12
2018-09-25T03:00:30.110Z,46.41
2018-09-25T03:01:01.201Z,46.19
2018-09-25T03:01:32.326Z,47.79
2018-09-25T03:02:03.418Z,46.55
2018-09-25T03:02:34.526Z,47.02
2018-09-25T03:03:05.652Z,45.60
2018-09-25T03:03:36.762Z,46.52
2018-09-25T03:04:07.939Z,47.50
2018-09-25T03:04:39.069Z,45.52
2018-09-25T03:05:10.176Z,45.37
2018-09-25T03:05:41.275Z,48.48
2018-09-25T03:06:12.387Z,47.31
2018-09-25T03:06:43.507Z,46.34
2018-09-25T03:07:14.605Z,46.32
2018-09-25T03:07:45.735Z,47.08
2018-09-25T03:08:16.829Z,45.88
2018-09-25T03:08:47.929Z,45.89
2018-09-25T03:09:19.093Z,45.23
2018-09-25T03:09:50.252Z,47.41
2018-09-25T03:10:21.381Z,45.37
2018-09-25T03:10:52.491Z,48.00
2018-09-25T03:11:23.589Z,45.71
2018-09-25T03:11:54.750Z,46.33
2018-09-25T03:12:25.863Z,44.55
2018-09-25T03:12:56.968Z,45.85
2018-09-25T03:13:28.102Z,45.08
2018-09-25T03:13:59.232Z,46.81
2018-09-25T03:14:30.345Z,46.51
2018-09-25T03:15:01.487Z,45.20
2018-09-25T03:15:32.598Z,45.49
2018-09-25T03:16:03.700Z,45.75
2018-09-25T03:16:34.811Z,45.27
2018-09-25T03:17:05.954Z,45.76
2018-09-25T03:17:37.066Z,45.13
2018-09-25T03:18:08.205Z,45.23
2018-09-25T03:18:39.352Z,46.80
2018-09-25T03:19:10.519Z,46.83
2018-09-25T03:19:41.649Z,44.58
2018-09-25T03:20:12.773Z,46.61
2018-09-25T03:20:43.889Z,47.57
2018-09-25T03:21:14.998Z,45.09
2018-09-25T03:21:46.126Z,45.25
2018-09-25T03:22:17.257Z,45.64
2018-09-25T03:22:48.377Z,45.75
2018-09-25T03:23:19.510Z,47.28
2018-09-25T03:23:50.684Z,45.30
2018-09-25T03:24:21.810Z,45.65
2018-09-25T03:24:52.929Z,45.82
2018-09-25T03:25:24.074Z,46.75
2018-09-25T03:25:55.263Z,46.62
2018-09-25T03:26:26.405Z,46.45
2018-09-25T03:26:57.525Z,45.22
2018-09-25T03:27:28.631Z,45.59
2018-09-25T03:27:59.725Z,44.83
2018-09-25T03:28:30.837Z,44.44
2018-09-25T03:29:01.961Z,44.95
2018-09-25T03:29:33.087Z,46.71
2018-09-25T03:30:04.221Z,46.30
2018-09-25T03:30:35.382Z,46.69
2018-09-25T03:31:06.517Z,46.22
2018-09-25T03:31:37.666Z,44.18
2018-09-25T03:32:08.841Z,44.05
2018-09-25T03:32:39.986Z,44.66
2018-09-25T03:33:11.102Z,44.77
2018-09-25T03:33:42.214Z,45.28
2018-09-25T03:34:13.323Z,45.25
2018-09-25T03:34:44.413Z,45.24
2018-09-25T03:35:15.507Z,48.05
2018-09-25T03:35:46.610Z,45.15
2018-09-25T03:36:17.749Z,46.45
2018-09-25T03:36:48.852Z,47.57
2018-09-25T03:37:19.961Z,44.75
2018-09-25T03:37:51.059Z,44.85
2018-09-25T03:38:22.170Z,46.47
2018-09-25T03:38:53.273Z,47.04
2018-09-25T03:39:24.365Z,47.29
2018-09-25T03:39:55.472Z,45.55
2018-09-25T03:40:26.592Z,45.73
2018-09-25T03:40:57.719Z,45.61
2018-09-25T03:41:28.874Z,46.48
2018-09-25T03:41:59.985Z,45.60
2018-09-25T03:42:31.087Z,44.22
2018-09-25T03:43:02.186Z,44.96
2018-09-25T03:43:33.313Z,45.16
2018-09-25T03:44:04.482Z,45.71
2018-09-25T03:44:35.591Z,44.71
2018-09-25T03:45:06.746Z,46.03
2018-09-25T03:45:37.859Z,45.46
2018-09-25T03:46:08.960Z,46.86
2018-09-25T03:46:40.105Z,45.97
2018-09-25T03:47:11.262Z,44.97
2018-09-25T03:47:42.376Z,45.93
2018-09-25T03:48:13.527Z,45.38
2018-09-25T03:48:44.650Z,45.84
2018-09-25T03:49:15.837Z,46.03
2018-09-25T03:49:46.943Z,45.39
2018-09-25T03:50:18.045Z,44.89
2018-09-25T03:50:49.143Z,45.61
2018-09-25T03:51:20.293Z,44.82
2018-09-25T03:51:51.478Z,46.50
2018-09-25T03:52:22.591Z,45.91
2018-09-25T03:52:53.692Z,45.52
2018-09-25T03:53:24.793Z,45.18
2018-09-25T03:53:55.894Z,45.87
2018-09-25T03:54:27.092Z,45.90
2018-09-25T03:54:58.225Z,46.10
2018-09-25T03:55:29.333Z,47.49
2018-09-25T03:56:00.443Z,45.63
2018-09-25T03:56:31.552Z,46.22
2018-09-25T03:57:02.654Z,45.38
2018-09-25T03:57:33.798Z,45.52
2018-09-25T03:58:04.923Z,45.50
2018-09-25T03:58:36.037Z,45.46
2018-09-25T03:59:07.176Z,47.43
2018-09-25T03:59:38.371Z,46.21
2018-09-25T04:00:09.513Z,46.43
2018-09-25T04:00:40.643Z,45.49
2018-09-25T04:01:11.750Z,46.84
2018-09-25T04:01:42.845Z,47.41
2018-09-25T04:02:14.000Z,45.84
2018-09-25T04:02:45.130Z,45.87
2018-09-25T04:03:16.264Z,45.84
2018-09-25T04:03:47.387Z,45.25
2018-09-25T04:04:18.491Z,45.86
2018-09-25T04:04:49.596Z,46.01
2018-09-25T04:05:20.689Z,45.88
2018-09-25T04:05:51.785Z,47.49
2018-09-25T04:06:22.956Z,45.46
2018-09-25T04:07:31.369Z,45.74
2018-09-25T04:08:02.494Z,46.70
2018-09-25T04:08:33.599Z,45.83
2018-09-25T04:09:04.690Z,45.81
2018-09-25T04:09:35.828Z,46.53
2018-09-25T04:10:06.938Z,45.66
2018-09-25T04:10:38.061Z,48.32
2018-09-25T04:11:09.170Z,46.73
2018-09-25T04:11:40.299Z,46.37
2018-09-25T04:12:11.427Z,47.35
2018-09-25T04:12:42.535Z,45.79
2018-09-25T04:13:13.634Z,45.45
2018-09-25T04:13:44.762Z,45.73
2018-09-25T04:14:15.851Z,46.13
2018-09-25T04:14:46.962Z,45.45
2018-09-25T04:15:18.062Z,45.68
2018-09-25T04:15:49.187Z,46.95
2018-09-25T04:16:20.294Z,46.60
2018-09-25T04:16:51.400Z,45.97
2018-09-25T04:17:22.516Z,47.09
2018-09-25T04:17:53.672Z,45.34
2018-09-25T04:18:24.795Z,46.34
2018-09-25T04:18:55.952Z,46.20
2018-09-25T04:19:27.049Z,45.51
2018-09-25T04:19:58.179Z,45.79
2018-09-25T04:20:29.305Z,45.65
2018-09-25T04:21:00.466Z,46.76
2018-09-25T04:21:31.579Z,49.02
2018-09-25T04:22:02.682Z,46.04
2018-09-25T04:22:33.811Z,46.68
2018-09-25T04:23:04.959Z,45.60
2018-09-25T04:23:36.063Z,46.55
2018-09-25T04:24:07.192Z,46.21
2018-09-25T04:24:38.299Z,48.32
2018-09-25T04:25:09.432Z,48.81
2018-09-25T04:25:40.554Z,47.15
2018-09-25T04:26:11.673Z,45.69
2018-09-25T04:26:42.779Z,46.01
2018-09-25T04:27:13.897Z,45.99
2018-09-25T04:27:45.014Z,46.82
2018-09-25T04:28:16.215Z,46.20
2018-09-25T04:28:47.339Z,46.54
2018-09-25T04:29:18.480Z,47.03
2018-09-25T04:29:49.584Z,46.89
2018-09-25T04:30:20.702Z,46.42
2018-09-25T04:30:51.826Z,46.53
2018-09-25T04:31:22.934Z,47.71
2018-09-25T04:31:54.088Z,46.89
2018-09-25T04:32:25.217Z,46.92
2018-09-25T04:32:56.349Z,47.33
2018-09-25T04:33:27.460Z,46.41
2018-09-25T04:33:58.584Z,47.53
2018-09-25T04:34:29.729Z,46.60
2018-09-25T04:35:00.836Z,47.92
2018-09-25T04:35:31.957Z,46.90
2018-09-25T04:36:03.070Z,47.61
2018-09-25T04:36:34.169Z,47.64
2018-09-25T04:37:05.305Z,47.25
2018-09-25T04:37:36.450Z,47.17
2018-09-25T04:38:07.562Z,46.56
2018-09-25T04:38:38.666Z,46.46
2018-09-25T04:39:09.783Z,47.12
2018-09-25T04:39:40.900Z,46.88
2018-09-25T04:40:12.029Z,47.81
2018-09-25T04:40:43.170Z,47.40
2018-09-25T04:41:14.319Z,47.39
2018-09-25T04:41:45.414Z,46.71
2018-09-25T04:42:16.529Z,46.47
2018-09-25T04:42:47.632Z,46.30
2018-09-25T04:43:18.745Z,46.17
2018-09-25T04:43:49.848Z,47.54
2018-09-25T04:44:20.995Z,47.09
2018-09-25T04:44:52.114Z,48.22
2018-09-25T04:45:23.253Z,46.45
2018-09-25T04:45:54.350Z,48.77
2018-09-25T04:46:25.471Z,46.20
2018-09-25T04:46:56.594Z,46.61
2018-09-25T04:47:27.709Z,47.46
2018-09-25T04:47:58.917Z,49.63
2018-09-25T04:48:29.996Z,47.16
2018-09-25T04:49:01.098Z,48.29
2018-09-25T04:49:32.226Z,46.08
2018-09-25T04:50:03.355Z,46.26
2018-09-25T04:50:34.489Z,46.11
2018-09-25T04:51:05.621Z,45.89
2018-09-25T04:51:36.722Z,46.25
2018-09-25T04:52:07.850Z,46.06
2018-09-25T04:52:38.993Z,47.53
2018-09-25T04:53:10.134Z,46.75
2018-09-25T04:53:41.239Z,48.29
2018-09-25T04:54:12.349Z,46.31
2018-09-25T04:54:43.465Z,47.20
2018-09-25T04:55:14.569Z,49.17
2018-09-25T04:55:45.723Z,47.15
2018-09-25T04:56:16.822Z,47.07
2018-09-25T04:56:47.951Z,45.97
2018-09-25T04:57:19.075Z,45.66
2018-09-25T04:57:50.189Z,46.38
2018-09-25T04:58:21.294Z,46.41
2018-09-25T04:58:52.391Z,46.40
2018-09-25T04:59:23.498Z,46.37
2018-09-25T04:59:54.603Z,46.12
2018-09-25T05:00:25.712Z,46.13
2018-09-25T05:00:56.842Z,45.89
2018-09-25T05:01:27.950Z,45.40
2018-09-25T05:01:59.103Z,46.33
2018-09-25T05:02:30.194Z,48.48
2018-09-25T05:03:01.293Z,47.67
2018-09-25T05:03:32.387Z,46.33
2018-09-25T05:04:03.511Z,45.67
2018-09-25T05:04:34.609Z,46.48
2018-09-25T05:05:05.711Z,47.33
2018-09-25T05:05:36.842Z,46.24
2018-09-25T05:06:07.959Z,46.20
2018-09-25T05:06:39.108Z,46.68
2018-09-25T05:07:10.245Z,46.82
2018-09-25T05:07:41.346Z,46.17
2018-09-25T05:08:12.465Z,47.63
2018-09-25T05:08:43.593Z,45.56
2018-09-25T05:09:14.710Z,45.78
2018-09-25T05:09:45.841Z,45.50
2018-09-25T05:10:16.954Z,46.01
2018-09-25T05:10:48.080Z,47.33
2018-09-25T05:11:19.201Z,47.50
2018-09-25T05:11:50.327Z,46.35
2018-09-25T05:12:21.482Z,45.92
2018-09-25T05:12:52.630Z,46.83
2018-09-25T05:13:23.761Z,45.18
2018-09-25T05:13:54.884Z,45.79
2018-09-25T05:14:26.039Z,46.98
2018-09-25T05:14:57.178Z,46.99
2018-09-25T05:15:28.441Z,45.54
2018-09-25T05:15:59.566Z,45.44
2018-09-25T05:16:30.681Z,45.83
2018-09-25T05:17:01.816Z,46.16
2018-09-25T05:17:32.986Z,48.12
2018-09-25T05:18:04.158Z,46.61
2018-09-25T05:18:35.303Z,46.28
2018-09-25T05:19:06.416Z,46.82
2018-09-25T05:19:37.555Z,47.60
2018-09-25T05:20:08.692Z,45.76
2018-09-25T05:20:39.798Z,44.88
2018-09-25T05:21:10.895Z,45.37
2018-09-25T05:21:41.998Z,46.38
2018-09-25T05:22:13.130Z,45.48
2018-09-25T05:22:44.292Z,48.46
2018-09-25T05:23:15.480Z,45.57
2018-09-25T05:23:46.616Z,46.34
2018-09-25T05:24:17.779Z,45.41
2018-09-25T05:24:48.955Z,45.83
2018-09-25T05:25:20.142Z,46.24
2018-09-25T05:25:51.265Z,48.76
2018-09-25T05:26:22.369Z,46.33
2018-09-25T05:26:53.477Z,45.83
2018-09-25T05:27:24.597Z,47.07
2018-09-25T05:27:55.756Z,46.46
2018-09-25T05:28:26.882Z,46.29
2018-09-25T05:28:58.079Z,46.63
2018-09-25T05:29:29.187Z,46.58
2018-09-25T05:30:00.325Z,46.35
2018-09-25T05:30:31.487Z,45.85
2018-09-25T05:31:02.677Z,46.78
2018-09-25T05:31:33.796Z,45.68
2018-09-25T05:32:04.941Z,46.19
2018-09-25T05:32:36.129Z,45.47
2018-09-25T05:33:07.323Z,46.30
2018-09-25T05:33:38.462Z,44.74
2018-09-25T05:34:09.570Z,45.73
2018-09-25T05:34:40.866Z,45.41
2018-09-25T05:35:12.022Z,44.58
2018-09-25T05:35:43.175Z,46.05
2018-09-25T05:36:14.314Z,45.44
2018-09-25T05:36:45.451Z,45.15
2018-09-25T05:37:16.553Z,45.60
2018-09-25T05:37:47.687Z,44.62
2018-09-25T05:38:18.924Z,45.98
2018-09-25T05:38:50.063Z,43.96
2018-09-25T05:39:21.268Z,44.47
2018-09-25T05:39:52.417Z,44.72
2018-09-25T05:40:23.526Z,44.43
2018-09-25T05:40:54.652Z,45.13
2018-09-25T05:41:25.776Z,45.07
2018-09-25T05:41:56.932Z,45.42
2018-09-25T05:42:28.094Z,47.33
2018-09-25T05:42:59.209Z,46.94
2018-09-25T05:43:30.408Z,44.98
2018-09-25T05:44:01.503Z,45.11
2018-09-25T05:44:32.646Z,44.78
2018-09-25T05:45:03.780Z,45.19
2018-09-25T05:45:34.959Z,44.22
2018-09-25T05:46:06.106Z,44.69
2018-09-25T05:46:37.229Z,43.47
2018-09-25T05:47:08.363Z,43.57
2018-09-25T05:47:39.475Z,45.89
2018-09-25T05:48:10.665Z,44.93
2018-09-25T05:48:41.831Z,44.97
2018-09-25T05:49:12.947Z,42.84
2018-09-25T05:49:44.078Z,41.95
2018-09-25T05:50:15.203Z,42.75
2018-09-25T05:50:46.429Z,42.03
2018-09-25T05:51:17.551Z,42.14
2018-09-25T05:51:48.706Z,42.02
2018-09-25T05:52:19.862Z,42.08
2018-09-25T05:52:50.994Z,42.71
2018-09-25T05:53:22.102Z,43.97
2018-09-25T05:53:53.227Z,41.07
2018-09-25T05:54:24.369Z,42.61
2018-09-25T05:54:55.491Z,41.84
2018-09-25T05:55:26.702Z,41.53
2018-09-25T05:55:57.786Z,42.02
2018-09-25T05:56:28.917Z,41.67
2018-09-25T05:57:00.064Z,42.59
2018-09-25T05:57:31.261Z,41.29
2018-09-25T05:58:37.050Z,40.88
2018-09-25T05:59:08.421Z,42.51
2018-09-25T05:59:39.579Z,40.46
2018-09-25T06:00:10.704Z,40.33
2018-09-25T06:00:41.876Z,39.90
2018-09-25T06:01:13.061Z,40.12
2018-09-25T06:01:44.353Z,39.85
2018-09-25T06:02:15.458Z,41.66
2018-09-25T06:02:46.605Z,40.36
2018-09-25T06:03:17.774Z,42.01
2018-09-25T06:03:48.899Z,40.44
2018-09-25T06:04:20.063Z,40.79
2018-09-25T06:04:51.248Z,39.68
2018-09-25T06:05:22.647Z,39.47
2018-09-25T06:05:53.881Z,39.92
2018-09-25T06:06:25.155Z,40.59
2018-09-25T06:06:56.286Z,39.73
2018-09-25T06:07:27.474Z,39.97
2018-09-25T06:07:58.627Z,41.41
2018-09-25T06:08:29.785Z,40.93
2018-09-25T06:09:01.021Z,39.42
2018-09-25T06:09:32.199Z,40.32
2018-09-25T06:10:03.304Z,40.90
2018-09-25T06:10:34.463Z,41.12
2018-09-25T06:11:05.640Z,40.65
2018-09-25T06:11:36.914Z,40.43
2018-09-25T06:12:08.156Z,41.77
2018-09-25T06:12:39.388Z,42.13
2018-09-25T06:13:10.612Z,40.67
2018-09-25T06:13:41.739Z,40.35
2018-09-25T06:14:12.918Z,41.42
2018-09-25T06:14:44.059Z,41.27
2018-09-25T06:15:15.321Z,41.61
2018-09-25T06:15:46.484Z,40.87
2018-09-25T06:16:17.717Z,40.66
2018-09-25T06:16:48.906Z,40.30
2018-09-25T06:17:20.070Z,41.32
2018-09-25T06:17:51.321Z,39.76
2018-09-25T06:18:22.421Z,42.93
2018-09-25T06:18:53.589Z,41.25
2018-09-25T06:19:24.782Z,39.21
2018-09-25T06:19:56.044Z,39.54
2018-09-25T06:20:27.299Z,40.59
2018-09-25T06:20:58.503Z,40.13
2018-09-25T06:21:29.633Z,42.53
2018-09-25T06:22:00.831Z,40.46
2018-09-25T06:22:31.985Z,39.19
2018-09-25T06:23:03.130Z,40.50
2018-09-25T06:23:35.413Z,39.23
2018-09-25T06:24:06.646Z,42.14
2018-09-25T06:24:37.762Z,40.56
2018-09-25T06:25:08.883Z,40.16
2018-09-25T06:25:40.161Z,41.45
2018-09-25T06:26:11.384Z,39.58
2018-09-25T06:26:42.511Z,40.34
2018-09-25T06:27:13.614Z,39.87
2018-09-25T06:27:44.730Z,40.48
2018-09-25T06:28:15.875Z,39.58
2018-09-25T06:28:47.177Z,40.76
2018-09-25T06:29:19.966Z,40.58
2018-09-25T06:29:51.157Z,40.07
2018-09-25T06:30:22.342Z,40.72
2018-09-25T06:30:53.524Z,39.20
2018-09-25T06:31:24.653Z,38.59
2018-09-25T06:31:55.782Z,40.28
2018-09-25T06:32:26.944Z,39.83
2018-09-25T06:32:59.088Z,40.81
2018-09-25T06:33:30.199Z,40.27
2018-09-25T06:34:01.335Z,39.31
2018-09-25T06:34:32.456Z,39.79
2018-09-25T06:35:03.615Z,41.07
2018-09-25T06:35:34.777Z,39.84
2018-09-25T06:36:05.920Z,40.50
2018-09-25T06:36:37.096Z,40.30
2018-09-25T06:37:08.258Z,40.02
2018-09-25T06:37:39.353Z,42.13
2018-09-25T06:38:10.488Z,40.47
2018-09-25T06:38:41.639Z,41.69
2018-09-25T06:39:12.792Z,40.14
2018-09-25T06:39:43.941Z,40.15
2018-09-25T06:40:15.071Z,39.53
2018-09-25T06:40:46.278Z,41.97
2018-09-25T06:41:17.396Z,41.26
2018-09-25T06:41:48.508Z,40.39
2018-09-25T06:42:19.639Z,41.75
2018-09-25T06:42:50.780Z,39.85